Time;durP1;ratioP1;P1;durP2;ratioP2;P2;SDS_P1;SDS_P2;PMS_P1;PMS_P2;Temp;Humidity;BMP_temperature;BMP_pressure;BME280_temperature;BME280_humidity;BME280_pressure;Samples;Min_cycle;Max_cycle;Signal;HPM_P1;HPM_P2
2023/08/09 00:01:03;;;;;;;;;;;;;;;21.85;59.99;100593.09;5056624;28;4282;-73
2023/08/09 00:03:31;;;;;;;;;;;;;;;21.88;59.68;100599.66;5056523;28;4127;-74
2023/08/09 00:05:57;;;;;;;;;;;;;;;21.88;60.07;100599.66;5057300;28;4062;-74
2023/08/09 00:08:24;;;;;;;;;;;;;;;21.82;59.82;100587.91;5056826;28;4201;-73
2023/08/09 00:10:50;;;;;;;;;;;;;;;21.80;59.97;100600.09;5057580;28;4050;-73
2023/08/09 00:13:16;;;;;;;;;;;;;;;21.82;59.59;100596.56;5058365;28;4469;-72
2023/08/09 00:15:43;;;;;;;;;;;;;;;21.83;60.06;100590.13;5056647;28;3982;-73
2023/08/09 00:18:09;;;;;;;;;;;;;;;21.77;59.90;100594.94;5058470;28;3917;-73
2023/08/09 00:20:36;;;;;;;;;;;;;;;21.84;59.98;100602.38;5059471;28;4158;-73
2023/08/09 00:23:03;;;;;;;;;;;;;;;21.88;59.87;100593.91;5055452;28;4268;-73
2023/08/09 00:25:29;;;;;;;;;;;;;;;21.83;59.75;100589.38;5058549;28;4176;-73
2023/08/09 00:27:56;;;;;;;;;;;;;;;21.87;59.65;100601.78;5056619;28;4107;-73
2023/08/09 00:30:22;;;;;;;;;;;;;;;21.86;59.69;100602.47;5056537;28;4642;-73
2023/08/09 00:32:49;;;;;;;;;;;;;;;21.83;59.80;100601.66;5056911;28;4116;-73
2023/08/09 00:35:15;;;;;;;;;;;;;;;21.84;59.82;100593.75;5058035;28;4088;-73
2023/08/09 00:37:42;;;;;;;;;;;;;;;21.84;59.69;100599.50;5057856;28;4143;-73
2023/08/09 00:40:11;;;;;;;;;;;;;;;21.84;59.80;100602.38;5056806;28;4073;-73
2023/08/09 00:42:38;;;;;;;;;;;;;;;21.86;59.76;100600.31;5057259;28;4072;-73
2023/08/09 00:45:05;;;;;;;;;;;;;;;21.84;59.87;100608.16;5055658;28;5536;-73
2023/08/09 00:47:32;;;;;;;;;;;;;;;21.81;59.55;100612.38;5056575;28;4158;-73
2023/08/09 00:49:58;;;;;;;;;;;;;;;21.82;60.04;100610.97;5057765;28;4508;-73
2023/08/09 00:52:25;;;;;;;;;;;;;;;21.79;59.69;100620.94;5039136;28;4198;-73
2023/08/09 00:54:52;;;;;;;;;;;;;;;21.82;60.03;100622.50;5057530;28;4509;-73
2023/08/09 00:57:18;;;;;;;;;;;;;;;21.78;59.74;100625.94;5039689;28;4047;-73
2023/08/09 00:59:45;;;;;;;;;;;;;;;21.80;59.84;100611.63;5051896;28;4183;-73
2023/08/09 01:02:11;;;;;;;;;;;;;;;21.75;59.64;100599.19;5056574;28;3947;-73
2023/08/09 01:04:38;;;;;;;;;;;;;;;21.75;59.96;100604.97;5056195;28;4363;-73
2023/08/09 01:07:17;;;;;;;;;;;;;;;21.79;59.96;100607.25;5057893;28;4324;-73
2023/08/09 01:09:57;;;;;;;;;;;;;;;21.74;59.98;100615.03;5030967;28;4168;-73
2023/08/09 01:12:23;;;;;;;;;;;;;;;21.73;60.00;100613.53;5040688;28;4164;-73
2023/08/09 01:14:53;;;;;;;;;;;;;;;21.72;59.88;100596.94;5057992;28;3998;-73
2023/08/09 01:17:19;;;;;;;;;;;;;;;21.71;59.78;100606.97;5057522;28;4288;-73
2023/08/09 01:19:49;;;;;;;;;;;;;;;21.76;59.76;100617.22;5031994;28;5165;-73
2023/08/09 01:22:16;;;;;;;;;;;;;;;21.72;59.69;100609.19;5037866;28;4177;-73
2023/08/09 01:24:43;;;;;;;;;;;;;;;21.71;59.79;100610.56;5056220;28;4538;-73
2023/08/09 01:27:10;;;;;;;;;;;;;;;21.74;59.72;100612.16;5053477;28;4319;-73
2023/08/09 01:29:36;;;;;;;;;;;;;;;21.70;59.70;100609.09;5051476;28;3943;-69
2023/08/09 01:32:03;;;;;;;;;;;;;;;21.72;59.76;100617.84;5052042;28;4172;-69
2023/08/09 01:34:30;;;;;;;;;;;;;;;21.74;59.71;100612.16;5051973;28;3991;-69
2023/08/09 01:36:57;;;;;;;;;;;;;;;21.70;60.02;100602.59;5054018;28;4162;-69
2023/08/09 01:39:26;;;;;;;;;;;;;;;21.72;59.71;100617.84;5012259;28;4116;-69
2023/08/09 01:41:52;;;;;;;;;;;;;;;21.68;60.12;100606.16;5055582;28;4170;-68
2023/08/09 01:44:19;;;;;;;;;;;;;;;21.68;59.86;100600.38;5055281;28;3933;-69
2023/08/09 01:46:45;;;;;;;;;;;;;;;21.69;60.06;100595.34;5055981;28;4160;-69
2023/08/09 01:49:12;;;;;;;;;;;;;;;21.67;60.19;100598.16;5028582;28;4207;-69
2023/08/09 01:51:39;;;;;;;;;;;;;;;21.67;60.07;100596.03;5055878;28;3967;-70
2023/08/09 01:54:06;;;;;;;;;;;;;;;21.63;59.89;100593.00;5054934;28;4077;-69
2023/08/09 01:56:32;;;;;;;;;;;;;;;21.63;60.05;100598.75;5030320;28;4544;-70
2023/08/09 01:58:59;;;;;;;;;;;;;;;21.62;60.24;100597.28;5052993;28;5262;-69
2023/08/09 02:01:25;;;;;;;;;;;;;;;21.63;60.03;100610.28;5052750;28;4354;-69
2023/08/09 02:03:52;;;;;;;;;;;;;;;21.63;60.11;100598.75;5044934;28;5214;-69
2023/08/09 02:06:20;;;;;;;;;;;;;;;21.64;59.88;100593.72;5055174;28;4114;-69
2023/08/09 02:12:40;;;;;;;;;;;;;;;21.62;59.95;100605.19;5051815;28;4243;-68
2023/08/09 02:15:06;;;;;;;;;;;;;;;21.62;60.13;100608.06;5021642;28;4291;-69
2023/08/09 02:17:33;;;;;;;;;;;;;;;21.61;60.24;100607.34;5042180;28;4352;-70
2023/08/09 02:20:00;;;;;;;;;;;;;;;21.61;60.00;100607.34;5059167;28;4002;-69
2023/08/09 02:22:26;;;;;;;;;;;;;;;21.61;59.92;100618.84;5059286;28;3948;-70
2023/08/09 02:24:54;;;;;;;;;;;;;;;21.61;60.22;100618.84;5027699;28;4054;-70
2023/08/09 02:27:20;;;;;;;;;;;;;;;21.63;59.87;100610.28;5041955;28;4144;-69
2023/08/09 02:29:47;;;;;;;;;;;;;;;21.64;59.82;100611.03;5057757;28;4364;-70
2023/08/09 02:32:14;;;;;;;;;;;;;;;21.63;59.74;100615.31;5040061;28;4005;-70
2023/08/09 02:34:40;;;;;;;;;;;;;;;21.65;59.84;100610.38;5056199;28;4048;-69
2023/08/09 02:37:07;;;;;;;;;;;;;;;21.63;59.78;100604.53;5058164;28;4512;-69
2023/08/09 02:39:35;;;;;;;;;;;;;;;21.63;59.75;100603.78;5045766;28;4069;-70
2023/08/09 02:42:03;;;;;;;;;;;;;;;21.64;59.76;100606.00;5032398;28;4149;-70
2023/08/09 02:44:32;;;;;;;;;;;;;;;21.62;60.03;100608.78;5054249;28;4205;-70
2023/08/09 02:46:59;;;;;;;;;;;;;;;21.60;59.95;100611.63;5058863;28;3991;-69
2023/08/09 02:49:25;;;;;;;;;;;;;;;21.58;60.24;100611.53;5058614;28;4030;-70
2023/08/09 02:51:52;;;;;;;;;;;;;;;21.60;59.82;100611.63;5057820;28;3982;-70
2023/08/09 02:54:18;;;;;;;;;;;;;;;21.59;59.93;100615.91;5058180;28;4727;-69
2023/08/09 02:56:45;;;;;;;;;;;;;;;21.60;60.01;100623.16;5038988;28;4209;-69
2023/08/09 02:59:11;;;;;;;;;;;;;;;21.60;60.21;100626.03;5034310;28;4300;-70
2023/08/09 03:01:37;;;;;;;;;;;;;;;21.60;60.08;100620.28;5058170;28;4001;-70
2023/08/09 03:04:04;;;;;;;;;;;;;;;21.60;59.78;100623.16;5057742;28;4509;-69
2023/08/09 03:06:31;;;;;;;;;;;;;;;21.60;59.90;100617.38;5038862;28;4063;-69
2023/08/09 03:08:57;;;;;;;;;;;;;;;21.57;60.15;100612.94;5057725;28;4133;-70
2023/08/09 03:11:24;;;;;;;;;;;;;;;21.56;60.08;100614.34;5039683;28;4177;-70
2023/08/09 03:13:51;;;;;;;;;;;;;;;21.57;60.08;100618.69;5056886;28;4129;-70
2023/08/09 03:16:18;;;;;;;;;;;;;;;21.57;60.13;100624.47;5029500;28;4438;-70
2023/08/09 03:18:44;;;;;;;;;;;;;;;21.55;59.78;100627.25;5057744;28;4117;-69
2023/08/09 03:21:12;;;;;;;;;;;;;;;21.55;60.06;100633.03;5057902;28;4361;-69
2023/08/09 03:23:38;;;;;;;;;;;;;;;21.56;59.98;100628.75;5054427;28;4532;-69
2023/08/09 03:26:05;;;;;;;;;;;;;;;21.55;60.10;100633.03;5039758;28;4071;-69
2023/08/09 03:28:32;;;;;;;;;;;;;;;21.53;60.17;100636.59;5058185;28;4149;-69
2023/08/09 03:31:02;;;;;;;;;;;;;;;21.53;59.97;100638.72;5044787;28;4470;-70
2023/08/09 03:33:33;;;;;;;;;;;;;;;21.54;59.90;100643.81;5057300;28;4141;-69
2023/08/09 03:36:00;;;;;;;;;;;;;;;21.55;60.04;100641.66;5044926;28;4158;-69
2023/08/09 03:38:26;;;;;;;;;;;;;;;21.55;60.09;100641.66;5056342;28;4328;-70
2023/08/09 03:40:52;;;;;;;;;;;;;;;21.57;59.93;100647.50;5055865;28;4312;-70
2023/08/09 03:43:19;;;;;;;;;;;;;;;21.57;60.04;100652.53;5040484;28;4248;-69
2023/08/09 03:45:45;;;;;;;;;;;;;;;21.56;60.00;100648.91;5054685;28;3998;-69
2023/08/09 03:48:12;;;;;;;;;;;;;;;21.57;60.08;100649.66;5046167;28;4058;-70
2023/08/09 03:50:40;;;;;;;;;;;;;;;21.55;59.92;100653.19;5059305;28;4502;-69
2023/08/09 03:53:06;;;;;;;;;;;;;;;21.53;60.01;100641.59;5053000;28;4185;-70
2023/08/09 03:55:35;;;;;;;;;;;;;;;21.52;60.16;100648.75;5043565;28;4199;-70
2023/08/09 03:58:02;;;;;;;;;;;;;;;21.54;60.02;100660.38;5060068;28;4051;-69
2023/08/09 04:00:28;;;;;;;;;;;;;;;21.55;59.94;100667.59;5032718;28;4020;-69
2023/08/09 04:02:56;;;;;;;;;;;;;;;21.52;60.05;100666.03;5060552;28;4331;-69
2023/08/09 04:05:23;;;;;;;;;;;;;;;21.54;59.90;100669.75;5060426;28;3913;-70
2023/08/09 04:07:49;;;;;;;;;;;;;;;21.51;60.03;100653.06;5057366;28;4595;-69
2023/08/09 04:10:16;;;;;;;;;;;;;;;21.51;60.03;100658.81;5014669;28;4236;-69
2023/08/09 04:12:43;;;;;;;;;;;;;;;21.51;60.22;100662.44;5040605;28;4152;-69
2023/08/09 04:15:10;;;;;;;;;;;;;;;21.55;59.96;100667.59;5042204;28;4232;-69
2023/08/09 04:17:36;;;;;;;;;;;;;;;21.54;59.88;100660.38;5060233;28;4116;-69
2023/08/09 04:20:04;;;;;;;;;;;;;;;21.52;59.76;100669.66;5058491;28;4101;-69
2023/08/09 04:22:30;;;;;;;;;;;;;;;21.51;59.87;100662.44;5041278;28;4178;-69
2023/08/09 04:24:57;;;;;;;;;;;;;;;21.52;60.01;100677.56;5059241;28;4042;-69
2023/08/09 04:27:23;;;;;;;;;;;;;;;21.51;60.04;100684.75;5059748;28;3915;-70
2023/08/09 04:29:49;;;;;;;;;;;;;;;21.48;59.71;100686.06;5059149;28;3992;-69
2023/08/09 04:32:16;;;;;;;;;;;;;;;21.47;59.84;100690.34;5061004;28;4212;-69
2023/08/09 04:34:43;;;;;;;;;;;;;;;21.46;60.21;100694.59;5059401;28;4197;-68
2023/08/09 04:37:10;;;;;;;;;;;;;;;21.48;59.92;100694.69;5059282;28;4052;-69
2023/08/09 04:39:36;;;;;;;;;;;;;;;21.48;60.05;100692.53;5060202;28;4278;-69
2023/08/09 04:42:03;;;;;;;;;;;;;;;21.46;60.03;100698.25;5059927;28;4270;-68
2023/08/09 04:44:30;;;;;;;;;;;;;;;21.47;59.92;100701.88;5060166;28;4153;-69
2023/08/09 04:46:58;;;;;;;;;;;;;;;21.47;59.91;100707.63;5057682;28;4322;-69
2023/08/09 04:49:26;;;;;;;;;;;;;;;21.46;59.96;100706.13;5059395;28;4004;-69
2023/08/09 04:51:53;;;;;;;;;;;;;;;21.47;59.84;100713.41;5058743;28;4306;-69
2023/08/09 04:54:19;;;;;;;;;;;;;;;21.48;59.84;100706.22;5042852;28;4210;-69
2023/08/09 04:56:45;;;;;;;;;;;;;;;21.48;59.94;100711.97;5055065;28;4206;-69
2023/08/09 04:59:12;;;;;;;;;;;;;;;21.46;59.86;100718.41;5057174;28;4248;-69
2023/08/09 05:01:38;;;;;;;;;;;;;;;21.44;60.07;100711.81;5054913;28;4152;-69
2023/08/09 05:04:05;;;;;;;;;;;;;;;21.43;60.16;100713.22;5057251;28;6990;-69
2023/08/09 05:06:31;;;;;;;;;;;;;;;21.46;59.90;100717.66;5058498;28;4161;-69
2023/08/09 05:08:58;;;;;;;;;;;;;;;21.49;59.81;100716.34;5058762;28;4140;-69
2023/08/09 05:11:24;;;;;;;;;;;;;;;21.46;59.80;100724.19;5060171;28;4363;-69
2023/08/09 05:13:50;;;;;;;;;;;;;;;21.44;60.16;100723.34;5058724;28;4265;-69
2023/08/09 05:16:17;;;;;;;;;;;;;;;21.43;60.09;100719.00;5053402;28;4156;-69
2023/08/09 05:18:43;;;;;;;;;;;;;;;21.43;59.88;100730.50;5055509;28;4144;-69
2023/08/09 05:21:10;;;;;;;;;;;;;;;21.43;60.01;100727.63;5058862;28;4410;-69
2023/08/09 05:23:36;;;;;;;;;;;;;;;21.44;60.05;100731.97;5058501;28;4135;-69
2023/08/09 05:26:03;;;;;;;;;;;;;;;21.43;59.87;100730.50;5056955;28;4165;-69
2023/08/09 05:28:29;;;;;;;;;;;;;;;21.43;59.87;100736.28;5060025;28;4281;-69
2023/08/09 05:30:55;;;;;;;;;;;;;;;21.44;60.02;100729.09;5058369;28;4041;-69
2023/08/09 05:33:22;;;;;;;;;;;;;;;21.46;59.72;100729.19;5058872;28;4189;-69
2023/08/09 05:35:48;;;;;;;;;;;;;;;21.44;59.81;100729.09;5057267;28;4065;-69
2023/08/09 05:38:15;;;;;;;;;;;;;;;21.44;60.03;100734.84;5059477;28;3952;-69
2023/08/09 05:40:41;;;;;;;;;;;;;;;21.42;60.05;100734.81;5058382;28;4388;-69
2023/08/09 05:43:07;;;;;;;;;;;;;;;21.40;60.00;100737.56;5057862;28;4095;-69
2023/08/09 05:45:34;;;;;;;;;;;;;;;21.42;59.89;100735.53;5058677;28;4184;-69
2023/08/09 05:48:00;;;;;;;;;;;;;;;21.44;59.63;100737.75;5057696;28;4117;-69
2023/08/09 05:50:27;;;;;;;;;;;;;;;21.43;59.86;100736.28;5056687;28;3945;-69
2023/08/09 05:52:53;;;;;;;;;;;;;;;21.44;59.96;100731.97;5059750;28;4049;-69
2023/08/09 05:55:20;;;;;;;;;;;;;;;21.42;60.07;100734.81;5057210;28;4263;-69
2023/08/09 05:57:46;;;;;;;;;;;;;;;21.42;59.84;100740.56;5058772;28;4178;-69
2023/08/09 06:00:15;;;;;;;;;;;;;;;21.40;60.05;100744.09;5057990;28;3932;-69
2023/08/09 06:02:43;;;;;;;;;;;;;;;21.40;60.00;100744.09;5041127;28;4202;-69
2023/08/09 06:05:23;;;;;;;;;;;;;;;21.40;60.14;100738.34;5058555;28;4471;-68
2023/08/09 06:07:49;;;;;;;;;;;;;;;21.42;59.79;100749.19;5056284;28;4092;-70
2023/08/09 06:10:16;;;;;;;;;;;;;;;21.34;59.69;100743.81;5054485;28;4348;-69
2023/08/09 06:12:42;;;;;;;;;;;;;;;21.36;59.51;100748.91;5056085;28;4074;-70
2023/08/09 06:15:09;;;;;;;;;;;;;;;21.36;59.74;100754.69;5057544;28;4379;-69
2023/08/09 06:17:35;;;;;;;;;;;;;;;21.38;59.55;100763.41;5058701;28;4220;-69
2023/08/09 06:20:04;;;;;;;;;;;;;;;21.38;59.43;100754.78;5058207;28;4128;-71
2023/08/09 06:22:30;;;;;;;;;;;;;;;21.39;59.93;100759.13;5057732;28;3883;-71
2023/08/09 06:24:57;;;;;;;;;;;;;;;21.40;59.66;100760.63;5056899;28;4070;-71
2023/08/09 06:27:23;;;;;;;;;;;;;;;21.40;59.67;100761.38;5057321;28;4095;-71
2023/08/09 06:29:50;;;;;;;;;;;;;;;21.40;59.83;100767.13;5059141;28;4093;-70
2023/08/09 06:32:16;;;;;;;;;;;;;;;21.41;59.69;100762.13;5057825;28;3987;-70
2023/08/09 06:34:43;;;;;;;;;;;;;;;21.39;59.62;100765.63;5057129;28;4367;-70
2023/08/09 06:37:09;;;;;;;;;;;;;;;21.39;59.64;100764.88;5039262;28;4061;-70
2023/08/09 06:39:36;;;;;;;;;;;;;;;21.41;59.66;100767.88;5059589;28;4061;-71
2023/08/09 06:42:02;;;;;;;;;;;;;;;21.41;59.91;100762.84;5056577;28;4132;-70
2023/08/09 06:44:33;;;;;;;;;;;;;;;21.40;59.71;100767.13;5044521;28;4197;-70
2023/08/09 06:47:00;;;;;;;;;;;;;;;21.46;59.44;100761.63;5057260;28;4102;-70
2023/08/09 06:49:27;;;;;;;;;;;;;;;21.48;59.26;100767.44;5057436;28;4164;-70
2023/08/09 06:51:55;;;;;;;;;;;;;;;21.51;58.39;100771.19;5057288;28;4030;-69
2023/08/09 06:54:21;;;;;;;;;;;;;;;21.52;58.57;100772.66;5059263;28;4993;-69
2023/08/09 06:56:52;;;;;;;;;;;;;;;21.54;58.40;100767.69;5057905;28;4072;-69
2023/08/09 06:59:19;;;;;;;;;;;;;;;21.47;58.11;100765.25;5058775;28;3991;-70
2023/08/09 07:01:47;;;;;;;;;;;;;;;21.42;57.47;100769.38;5056505;28;4164;-69
2023/08/09 07:04:14;;;;;;;;;;;;;;;21.37;57.49;100767.66;5056504;28;3913;-69
2023/08/09 07:06:41;;;;;;;;;;;;;;;21.33;57.08;100774.03;5029078;28;4025;-70
2023/08/09 07:09:07;;;;;;;;;;;;;;;21.42;56.83;100775.13;5055683;28;4868;-70
2023/08/09 07:11:34;;;;;;;;;;;;;;;21.30;56.82;100776.09;5055892;28;4032;-69
2023/08/09 07:14:00;;;;;;;;;;;;;;;20.68;55.89;100780.63;5056705;28;4313;-67
2023/08/09 07:16:27;;;;;;;;;;;;;;;20.21;56.66;100776.38;5028996;28;4009;-66
2023/08/09 07:18:53;;;;;;;;;;;;;;;20.32;57.02;100783.34;5054463;28;4341;-67
2023/08/09 07:21:23;;;;;;;;;;;;;;;20.27;56.94;100775.91;5055259;28;4294;-66
2023/08/09 07:23:49;;;;;;;;;;;;;;;20.23;56.94;100781.50;5057050;28;4492;-67
2023/08/09 07:26:18;;;;;;;;;;;;;;;20.28;56.78;100783.16;5035558;28;4874;-67
2023/08/09 07:28:45;;;;;;;;;;;;;;;20.39;56.56;100788.00;5062082;28;4122;-67
2023/08/09 07:31:18;;;;;;;;;;;;;;;20.44;56.14;100795.41;5061798;28;4026;-67
2023/08/09 07:33:45;;;;;;;;;;;;;;;20.48;55.85;100801.34;5057455;28;4208;-71
2023/08/09 07:36:11;;;;;;;;;;;;;;;20.04;55.31;100806.53;5061999;28;4164;-67
2023/08/09 07:38:38;;;;;;;;;;;;;;;19.81;55.99;100806.84;5057305;28;4028;-74
2023/08/09 07:41:04;;;;;;;;;;;;;;;19.93;55.97;100807.44;5059888;28;4122;-73
2023/08/09 07:43:31;;;;;;;;;;;;;;;19.99;55.97;100801.22;5058328;28;4114;-83
2023/08/09 07:45:57;;;;;;;;;;;;;;;20.09;55.29;100813.22;5055676;28;4171;-83
2023/08/09 07:48:23;;;;;;;;;;;;;;;20.13;55.33;100819.13;5058721;28;4579;-81
2023/08/09 07:50:50;;;;;;;;;;;;;;;20.15;55.17;100821.38;5057870;28;4132;-87
2023/08/09 07:53:16;;;;;;;;;;;;;;;20.18;54.57;100828.69;5070786;28;3989;-80
2023/08/09 07:55:43;;;;;;;;;;;;;;;20.40;54.51;100826.84;5068945;28;4159;-81
2023/08/09 07:58:09;;;;;;;;;;;;;;;20.43;54.30;100828.44;5061067;28;4496;-87
2023/08/09 08:00:35;;;;;;;;;;;;;;;20.18;53.90;100820.06;5061231;28;4162;-86
2023/08/09 08:03:16;;;;;;;;;;;;;;;20.07;54.67;100833.97;5060146;28;4032;-87
2023/08/09 08:05:42;;;;;;;;;;;;;;;20.06;54.37;100838.22;5058570;28;4526;-86
2023/08/09 08:08:11;;;;;;;;;;;;;;;19.82;53.93;100842.81;5062084;28;4203;-87
2023/08/09 08:10:38;;;;;;;;;;;;;;;19.92;54.04;100839.69;5062149;28;4088;-87
2023/08/09 08:13:04;;;;;;;;;;;;;;;20.09;54.03;100842.69;5058065;28;4083;-87
2023/08/09 08:15:31;;;;;;;;;;;;;;;19.82;53.12;100842.81;5057669;28;4198;-87
2023/08/09 08:17:57;;;;;;;;;;;;;;;19.67;53.49;100842.09;5060383;28;4193;-87
2023/08/09 08:20:24;;;;;;;;;;;;;;;19.74;53.95;100839.56;5058493;28;4143;-87
2023/08/09 08:22:51;;;;;;;;;;;;;;;19.76;53.26;100851.16;5058079;28;4152;-86
2023/08/09 08:25:17;;;;;;;;;;;;;;;19.85;53.36;100853.03;5059381;28;4166;-87
2023/08/09 08:27:45;;;;;;;;;;;;;;;19.94;53.40;100842.66;5061999;28;4209;-86
2023/08/09 08:30:17;;;;;;;;;;;;;;;19.92;52.85;100851.94;5058295;28;4171;-84
2023/08/09 08:32:44;;;;;;;;;;;;;;;20.15;53.21;100853.00;5058832;28;4161;-85
2023/08/09 08:35:11;;;;;;;;;;;;;;;20.04;53.37;100857.50;5032422;28;4175;-89
2023/08/09 08:37:38;;;;;;;;;;;;;;;20.06;52.59;100855.47;5036480;28;4074;-87
2023/08/09 08:40:09;;;;;;;;;;;;;;;20.09;52.50;100854.19;5035201;28;4069;-86
2023/08/09 08:42:36;;;;;;;;;;;;;;;20.18;52.91;100857.44;5037882;28;4004;-88
2023/08/09 08:45:09;;;;;;;;;;;;;;;20.39;52.73;100862.03;5036167;28;4862;-88
2023/08/09 08:47:37;;;;;;;;;;;;;;;20.31;52.67;100868.13;5035837;28;4191;-89
2023/08/09 08:50:03;;;;;;;;;;;;;;;20.23;53.06;100874.25;5040673;28;4120;-89
2023/08/09 08:52:30;;;;;;;;;;;;;;;19.92;52.68;100877.78;5036727;28;4204;-89
2023/08/09 08:54:56;;;;;;;;;;;;;;;19.81;53.20;100875.81;5038359;28;3940;-89
2023/08/09 08:57:23;;;;;;;;;;;;;;;20.06;53.06;100872.72;5039599;28;4160;-89
2023/08/09 08:59:49;;;;;;;;;;;;;;;20.11;53.13;100878.66;5036876;28;4370;-89
2023/08/09 09:02:16;;;;;;;;;;;;;;;20.26;52.86;100886.59;5037230;28;4137;-88
2023/08/09 09:04:42;;;;;;;;;;;;;;;20.15;53.18;100884.63;5039456;28;4122;-88
2023/08/09 09:07:08;;;;;;;;;;;;;;;20.25;53.11;100893.75;5036814;28;4293;-89
2023/08/09 09:09:42;;;;;;;;;;;;;;;20.34;52.75;100889.84;5036201;28;4084;-89
2023/08/09 09:12:09;;;;;;;;;;;;;;;20.54;52.33;100877.78;5032451;28;4286;-83
2023/08/09 09:14:35;;;;;;;;;;;;;;;20.71;52.10;100897.31;5036268;28;4155;-83
2023/08/09 09:17:02;;;;;;;;;;;;;;;20.79;52.37;100897.66;5035893;28;5575;-82
2023/08/09 09:19:32;;;;;;;;;;;;;;;20.83;52.33;100903.63;5034808;28;4130;-83
2023/08/09 09:21:59;;;;;;;;;;;;;;;20.86;52.14;100898.69;5036384;28;4193;-84
2023/08/09 09:24:26;;;;;;;;;;;;;;;20.88;52.26;100901.66;5040864;28;4172;-83
2023/08/09 09:26:53;;;;;;;;;;;;;;;20.90;52.23;100913.28;5033085;28;4250;-83
2023/08/09 09:29:20;;;;;;;;;;;;;;;20.92;52.62;100904.72;5035710;28;4190;-83
2023/08/09 09:31:47;;;;;;;;;;;;;;;20.91;52.62;100904.00;5037909;28;4129;-83
2023/08/09 09:34:14;;;;;;;;;;;;;;;20.96;52.34;100904.16;5042471;28;4107;-84
2023/08/09 09:36:42;;;;;;;;;;;;;;;20.96;52.54;100893.41;5054160;28;4150;-82
2023/08/09 09:39:09;;;;;;;;;;;;;;;20.98;52.73;100910.00;5052680;28;4188;-84
2023/08/09 09:41:37;;;;;;;;;;;;;;;21.00;52.65;100907.22;5058407;28;4000;-83
2023/08/09 09:44:04;;;;;;;;;;;;;;;21.00;52.41;100899.31;5056687;28;4225;-83
2023/08/09 09:46:30;;;;;;;;;;;;;;;21.01;52.29;100900.81;5057375;28;4055;-83
2023/08/09 09:49:03;;;;;;;;;;;;;;;21.03;52.11;100903.78;5055453;28;4204;-82
2023/08/09 09:51:30;;;;;;;;;;;;;;;21.06;52.11;100907.50;5055531;28;4023;-83
2023/08/09 09:53:56;;;;;;;;;;;;;;;21.06;51.99;100907.50;5056062;28;4149;-83
2023/08/09 09:56:23;;;;;;;;;;;;;;;21.07;51.93;100898.22;5055779;28;4055;-83
2023/08/09 09:58:49;;;;;;;;;;;;;;;21.10;52.32;100899.03;5054063;28;4534;-83
2023/08/09 10:01:19;;;;;;;;;;;;;;;21.09;52.03;100900.44;5060323;28;3941;-83
2023/08/09 10:03:45;;;;;;;;;;;;;;;21.12;51.91;100902.03;5055769;28;4578;-83
2023/08/09 10:06:20;;;;;;;;;;;;;;;21.11;51.90;100897.63;5055807;28;4106;-84
2023/08/09 10:08:47;;;;;;;;;;;;;;;21.12;51.76;100894.13;5052558;28;4169;-83
2023/08/09 10:11:14;;;;;;;;;;;;;;;21.14;52.13;100896.31;5055204;28;4009;-83
2023/08/09 10:13:41;;;;;;;;;;;;;;;21.18;52.07;100892.88;5057665;28;4080;-82
2023/08/09 10:16:08;;;;;;;;;;;;;;;21.19;52.04;100903.00;5029901;28;4823;-84
2023/08/09 10:18:35;;;;;;;;;;;;;;;21.19;51.86;100898.00;5035802;28;4255;-83
2023/08/09 10:21:02;;;;;;;;;;;;;;;21.18;51.94;100902.25;5030026;28;4121;-83
2023/08/09 10:23:31;;;;;;;;;;;;;;;21.20;52.03;100898.75;5053181;28;4209;-83
2023/08/09 10:25:57;;;;;;;;;;;;;;;21.19;51.93;100917.41;5053941;28;4886;-84
2023/08/09 10:28:39;;;;;;;;;;;;;;;21.19;51.75;100929.69;5053393;28;4047;-87
2023/08/09 10:31:05;;;;;;;;;;;;;;;21.29;53.67;100940.91;5052523;28;4068;-94
2023/08/09 10:33:32;;;;;;;;;;;;;;;21.58;52.76;100960.19;5056097;28;4560;-92
2023/08/09 10:35:58;;;;;;;;;;;;;;;21.72;52.91;100975.19;5053505;28;4301;-90
2023/08/09 10:38:31;;;;;;;;;;;;;;;21.78;54.47;100968.22;5053843;28;4022;-84
2023/08/09 10:41:09;;;;;;;;;;;;;;;21.75;52.97;100971.00;5057126;28;3964;-84
2023/08/09 10:43:36;;;;;;;;;;;;;;;21.78;52.56;100954.53;5057761;28;4239;-84
2023/08/09 10:46:18;;;;;;;;;;;;;;;21.58;52.75;100954.44;5059612;28;4195;-83
2023/08/09 10:48:48;;;;;;;;;;;;;;;21.51;52.57;100955.56;5030737;28;4306;-84
2023/08/09 10:51:18;;;;;;;;;;;;;;;21.48;52.98;100954.72;5033170;28;4893;-84
2023/08/09 10:53:54;;;;;;;;;;;;;;;21.46;53.01;100953.88;5053117;28;4185;-84
2023/08/09 10:56:49;;;;;;;;;;;;;;;21.38;53.58;100953.53;5029117;28;4053;-82
2023/08/09 10:59:24;;;;;;;;;;;;;;;21.43;53.69;100949.44;5042802;28;3877;-81
2023/08/09 11:01:50;;;;;;;;;;;;;;;21.45;53.73;100952.41;5062445;28;4214;-80
2023/08/09 11:04:19;;;;;;;;;;;;;;;21.45;53.58;100958.19;5062418;28;4074;-80
2023/08/09 11:06:49;;;;;;;;;;;;;;;21.41;54.46;100952.22;5060780;28;4451;-81
2023/08/09 11:09:21;;;;;;;;;;;;;;;21.34;55.30;100954.06;5060251;28;4396;-82
2023/08/09 11:11:47;;;;;;;;;;;;;;;21.38;54.82;100948.50;5060987;28;4138;-83
2023/08/09 11:14:14;;;;;;;;;;;;;;;21.41;54.26;100947.22;5058971;28;4944;-83
2023/08/09 11:16:41;;;;;;;;;;;;;;;21.53;54.44;100952.75;5056007;28;3935;-81
2023/08/09 11:19:08;;;;;;;;;;;;;;;21.56;54.49;100942.06;5062040;28;4031;-84
2023/08/09 11:21:50;;;;;;;;;;;;;;;21.56;54.54;100945.69;5062430;28;4053;-83
2023/08/09 11:24:17;;;;;;;;;;;;;;;21.58;54.52;100942.91;5060907;28;4561;-89
2023/08/09 11:26:45;;;;;;;;;;;;;;;21.94;54.10;100951.59;5061430;28;4049;-88
2023/08/09 11:29:11;;;;;;;;;;;;;;;22.09;53.71;100955.81;5059034;28;4195;-83
2023/08/09 11:31:39;;;;;;;;;;;;;;;22.12;53.87;100949.44;5042389;28;4163;-87
2023/08/09 11:34:06;;;;;;;;;;;;;;;22.12;53.80;100951.59;5060864;28;4255;-84
2023/08/09 11:36:32;;;;;;;;;;;;;;;22.12;54.15;100958.09;5050290;28;4266;-83
2023/08/09 11:38:59;;;;;;;;;;;;;;;22.19;54.00;100956.22;5061617;28;4481;-82
2023/08/09 11:41:25;;;;;;;;;;;;;;;22.24;53.80;100957.13;5063581;28;4036;-87
2023/08/09 11:43:52;;;;;;;;;;;;;;;21.90;54.56;100954.31;5059987;28;4240;-87
2023/08/09 11:46:21;;;;;;;;;;;;;;;21.81;54.64;100955.38;5061864;28;5021;-85
2023/08/09 11:48:48;;;;;;;;;;;;;;;21.79;54.90;100958.19;5062328;28;4017;-86
2023/08/09 11:51:15;;;;;;;;;;;;;;;21.77;55.05;100955.22;5062518;28;4165;-89
2023/08/09 11:53:42;;;;;;;;;;;;;;;21.78;54.87;100960.28;5061070;28;4064;-84
2023/08/09 11:56:15;;;;;;;;;;;;;;;21.78;54.75;100956.69;5061487;28;4213;-84
2023/08/09 11:58:43;;;;;;;;;;;;;;;21.79;54.84;100952.41;5059941;28;4213;-84
2023/08/09 12:01:13;;;;;;;;;;;;;;;21.78;54.92;100959.56;5054151;28;4837;-84
2023/08/09 12:03:40;;;;;;;;;;;;;;;21.81;55.25;100964.03;5058095;28;4027;-83
2023/08/09 12:06:06;;;;;;;;;;;;;;;21.87;55.20;100967.16;5062077;28;5095;-80
2023/08/09 12:08:35;;;;;;;;;;;;;;;21.88;55.09;100962.88;5061409;28;3981;-85
2023/08/09 12:11:02;;;;;;;;;;;;;;;21.83;55.31;100952.56;5059783;28;4055;-90
2023/08/09 12:13:28;;;;;;;;;;;;;;;21.82;55.15;100965.50;5056111;28;3932;-87
2023/08/09 12:15:56;;;;;;;;;;;;;;;21.78;55.18;100965.31;5052214;28;4271;-88
2023/08/09 12:18:23;;;;;;;;;;;;;;;21.80;55.38;100959.66;5056753;28;4055;-84
2023/08/09 12:20:49;;;;;;;;;;;;;;;21.79;55.35;100966.81;5052686;28;4152;-89
2023/08/09 12:23:15;;;;;;;;;;;;;;;21.79;54.74;100966.81;5057182;28;4054;-89
2023/08/09 12:25:43;;;;;;;;;;;;;;;21.80;54.67;100968.28;5056825;28;4074;-89
2023/08/09 12:28:10;;;;;;;;;;;;;;;21.80;54.74;100974.06;5056955;28;4021;-89
2023/08/09 12:30:37;;;;;;;;;;;;;;;21.82;54.81;100980.66;5055225;28;4194;-89
2023/08/09 12:33:03;;;;;;;;;;;;;;;21.82;55.24;100972.00;5058177;28;4249;-89
2023/08/09 12:35:30;;;;;;;;;;;;;;;21.82;54.97;100968.38;5056126;28;4357;-90
2023/08/09 12:37:57;;;;;;;;;;;;;;;21.79;55.25;100969.72;5053967;28;4350;-90
2023/08/09 12:40:24;;;;;;;;;;;;;;;21.82;55.23;100982.78;5055526;28;4140;-89
2023/08/09 12:42:51;;;;;;;;;;;;;;;21.80;55.22;100989.22;5057821;28;4281;-89
2023/08/09 12:45:17;;;;;;;;;;;;;;;21.82;55.43;100982.78;5059825;28;4143;-89
2023/08/09 12:47:44;;;;;;;;;;;;;;;21.81;55.28;100987.81;5056999;28;4124;-89
2023/08/09 12:50:10;;;;;;;;;;;;;;;21.83;55.19;100990.03;5053091;28;4284;-90
2023/08/09 12:52:36;;;;;;;;;;;;;;;21.82;55.00;100997.22;5055670;28;3999;-89